• Join FlightAware (Why Join?)
  • Login
  • US Flag 
03:19PM EST


 

Airport Tracker/Info


-or-


 

Live Flight TrackerFlight Track Log ✈ TYR980 ✈ 24-Apr-2013 ✈ LOWG / GRZ - LOWW / VIE

Flight Track Log - Related Links

Times and Time Zones

All times are in EDT time to prevent confusion due to time zone crossing. See the TYR980 flight status page for this flight to view local times or setup timezone preferences in your user account.

Time Position Orientation Groundspeed Altitude Reporting Facility
EDT Latitude Longitude Course Direction KTS MPH feet Rate Location/Type
05:26AM 47.2729 15.7186 34° Northeast  Level Estimated
05:27AM 47.3292 15.7748 34° Northeast  Level Estimated
05:28AM 47.3854 15.8310 34° Northeast  Level Estimated
05:29AM 47.4416 15.8874 34° Northeast  Level Estimated
05:30AM 47.4978 15.9439 34° Northeast  Level Estimated
05:31AM 47.5540 16.0006 34° Northeast  Level Estimated
05:32AM 47.6101 16.0573 34° Northeast  Level Estimated
05:33AM 47.6662 16.1142 34° Northeast  Level Estimated
05:34AM 47.7223 16.1712 34° Northeast  Level Estimated
05:35AM 47.7784 16.2283 34° Northeast  Level Estimated
05:36AM 47.8344 16.2856 34° Northeast  Level Estimated
05:37AM 47.8904 16.3430 34° Northeast  Level Estimated
05:38AM 47.9464 16.4004 35° Northeast  Level Estimated
05:39AM 48.0023 16.4581 35° Northeast  Level Estimated
05:40AM 48.0582 16.5158 35° Northeast  Level Estimated
05:41AM 48.1103 16.5697 35° Northeast  Level Estimated
05:42AM 48.1103 16.5697 146° Southeast  Level Estimated
05:43AM 48.1103 16.5697 146° Southeast  Level Estimated
05:44AM 48.1103 16.5697 146° Southeast  Level Estimated
05:45AM 48.1103 16.5697 146° Southeast  Level Estimated
05:46AM 48.1103 16.5697 146° Southeast  Level Estimated
05:47AM 48.1103 16.5697 146° Southeast  Level Estimated
05:48AM 48.1103 16.5697 146° Southeast  Level Estimated
05:49AM 48.1103 16.5697 146° Southeast  Level Estimated
05:50AM 48.1103 16.5697 146° Southeast  Level Estimated
05:51AM 48.1103 16.5697 146° Southeast  Level Estimated
05:52AM 48.1103 16.5697 146° Southeast  Level Estimated